sensor_id;sensor_type;location;lat;lon;timestamp;pressure;altitude;pressure_sealevel;temperature;humidity
50774;BME280;36745;48.544;8.918;2023-05-02T00:00:14;97468.19;;;8.08;100.00
50774;BME280;36745;48.544;8.918;2023-05-02T00:03:33;97464.94;;;8.13;100.00
50774;BME280;36745;48.544;8.918;2023-05-02T00:06:53;97470.56;;;8.06;100.00
50774;BME280;36745;48.544;8.918;2023-05-02T00:10:13;97464.38;;;8.01;100.00
50774;BME280;36745;48.544;8.918;2023-05-02T00:13:33;97459.38;;;7.96;100.00
50774;BME280;36745;48.544;8.918;2023-05-02T00:16:52;97457.31;;;8.00;100.00
50774;BME280;36745;48.544;8.918;2023-05-02T00:20:12;97451.34;;;8.06;100.00
50774;BME280;36745;48.544;8.918;2023-05-02T00:23:32;97466.69;;;8.03;100.00
50774;BME280;36745;48.544;8.918;2023-05-02T00:26:52;97466.75;;;7.99;100.00
50774;BME280;36745;48.544;8.918;2023-05-02T00:30:12;97462.81;;;8.00;100.00
50774;BME280;36745;48.544;8.918;2023-05-02T00:33:32;97460.94;;;8.17;100.00
50774;BME280;36745;48.544;8.918;2023-05-02T00:36:52;97468.97;;;8.08;100.00
50774;BME280;36745;48.544;8.918;2023-05-02T00:40:12;97472.13;;;8.07;100.00
50774;BME280;36745;48.544;8.918;2023-05-02T00:43:32;97465.81;;;8.10;100.00
50774;BME280;36745;48.544;8.918;2023-05-02T00:46:51;97460.88;;;8.21;100.00
50774;BME280;36745;48.544;8.918;2023-05-02T00:50:11;97466.16;;;8.12;100.00
50774;BME280;36745;48.544;8.918;2023-05-02T00:53:31;97471.47;;;7.99;100.00
50774;BME280;36745;48.544;8.918;2023-05-02T00:56:51;97478.69;;;7.89;100.00
50774;BME280;36745;48.544;8.918;2023-05-02T01:00:11;97471.59;;;7.92;100.00
50774;BME280;36745;48.544;8.918;2023-05-02T01:11:22;97480.13;;;7.97;100.00
50774;BME280;36745;48.544;8.918;2023-05-02T01:14:49;97478.22;;;7.94;100.00
50774;BME280;36745;48.544;8.918;2023-05-02T01:18:12;97481.69;;;7.98;100.00
50774;BME280;36745;48.544;8.918;2023-05-02T01:21:34;97487.94;;;7.99;100.00
50774;BME280;36745;48.544;8.918;2023-05-02T01:28:30;97489.91;;;7.75;100.00
50774;BME280;36745;48.544;8.918;2023-05-02T01:31:55;97486.81;;;7.73;100.00
50774;BME280;36745;48.544;8.918;2023-05-02T01:35:17;97482.97;;;7.67;100.00
50774;BME280;36745;48.544;8.918;2023-05-02T01:38:38;97489.38;;;7.61;100.00
50774;BME280;36745;48.544;8.918;2023-05-02T01:42:01;97485.50;;;7.58;100.00
50774;BME280;36745;48.544;8.918;2023-05-02T01:45:24;97487.94;;;7.52;100.00
50774;BME280;36745;48.544;8.918;2023-05-02T01:48:45;97494.88;;;7.61;100.00
50774;BME280;36745;48.544;8.918;2023-05-02T01:52:08;97490.25;;;7.54;100.00
50774;BME280;36745;48.544;8.918;2023-05-02T01:55:30;97488.09;;;7.42;100.00
50774;BME280;36745;48.544;8.918;2023-05-02T01:58:52;97482.31;;;7.36;100.00
50774;BME280;36745;48.544;8.918;2023-05-02T02:02:14;97486.97;;;7.39;100.00
50774;BME280;36745;48.544;8.918;2023-05-02T02:05:36;97484.31;;;7.32;100.00
50774;BME280;36745;48.544;8.918;2023-05-02T02:08:56;97495.44;;;7.22;100.00
50774;BME280;36745;48.544;8.918;2023-05-02T02:12:34;97494.00;;;7.13;100.00
50774;BME280;36745;48.544;8.918;2023-05-02T02:15:58;97492.91;;;7.07;100.00
50774;BME280;36745;48.544;8.918;2023-05-02T02:19:20;97493.28;;;7.09;100.00
50774;BME280;36745;48.544;8.918;2023-05-02T02:22:42;97498.84;;;7.02;100.00
50774;BME280;36745;48.544;8.918;2023-05-02T02:26:03;97505.25;;;6.92;100.00
50774;BME280;36745;48.544;8.918;2023-05-02T02:29:23;97506.72;;;7.00;100.00
50774;BME280;36745;48.544;8.918;2023-05-02T02:32:43;97514.94;;;7.00;100.00
50774;BME280;36745;48.544;8.918;2023-05-02T02:36:11;97514.66;;;6.91;100.00
50774;BME280;36745;48.544;8.918;2023-05-02T02:43:32;97520.03;;;6.68;100.00
50774;BME280;36745;48.544;8.918;2023-05-02T02:47:19;97521.94;;;6.71;100.00
50774;BME280;36745;48.544;8.918;2023-05-02T02:54:40;97525.34;;;6.48;100.00
50774;BME280;36745;48.544;8.918;2023-05-02T03:01:42;97537.28;;;6.27;100.00
50774;BME280;36745;48.544;8.918;2023-05-02T03:05:06;97545.22;;;6.18;100.00
50774;BME280;36745;48.544;8.918;2023-05-02T03:08:27;97543.94;;;6.26;100.00
50774;BME280;36745;48.544;8.918;2023-05-02T03:11:47;97552.50;;;6.32;100.00
50774;BME280;36745;48.544;8.918;2023-05-02T03:18:51;97553.09;;;6.13;100.00
50774;BME280;36745;48.544;8.918;2023-05-02T03:22:11;97560.47;;;6.19;100.00
50774;BME280;36745;48.544;8.918;2023-05-02T03:25:31;97563.78;;;6.38;100.00
50774;BME280;36745;48.544;8.918;2023-05-02T03:28:50;97570.16;;;6.27;100.00
50774;BME280;36745;48.544;8.918;2023-05-02T03:32:10;97569.78;;;6.25;100.00
50774;BME280;36745;48.544;8.918;2023-05-02T03:35:30;97567.34;;;6.35;100.00
50774;BME280;36745;48.544;8.918;2023-05-02T03:38:50;97575.47;;;6.45;100.00
50774;BME280;36745;48.544;8.918;2023-05-02T03:42:10;97575.41;;;6.49;100.00
50774;BME280;36745;48.544;8.918;2023-05-02T03:45:30;97587.63;;;6.41;100.00
50774;BME280;36745;48.544;8.918;2023-05-02T03:48:50;97591.94;;;6.42;100.00
50774;BME280;36745;48.544;8.918;2023-05-02T03:52:09;97601.31;;;6.41;100.00
50774;BME280;36745;48.544;8.918;2023-05-02T03:55:29;97601.91;;;6.59;100.00
50774;BME280;36745;48.544;8.918;2023-05-02T03:58:49;97599.06;;;6.69;100.00
50774;BME280;36745;48.544;8.918;2023-05-02T04:02:09;97609.53;;;6.78;100.00
50774;BME280;36745;48.544;8.918;2023-05-02T04:05:29;97609.94;;;6.80;100.00
50774;BME280;36745;48.544;8.918;2023-05-02T04:08:49;97614.38;;;6.67;100.00
50774;BME280;36745;48.544;8.918;2023-05-02T04:12:09;97610.44;;;6.68;100.00
50774;BME280;36745;48.544;8.918;2023-05-02T04:15:30;97614.25;;;6.78;100.00
50774;BME280;36745;48.544;8.918;2023-05-02T04:18:49;97624.38;;;6.84;100.00
50774;BME280;36745;48.544;8.918;2023-05-02T04:22:09;97625.81;;;6.92;100.00
50774;BME280;36745;48.544;8.918;2023-05-02T04:25:29;97629.75;;;6.91;100.00
50774;BME280;36745;48.544;8.918;2023-05-02T04:28:49;97635.53;;;7.00;100.00
50774;BME280;36745;48.544;8.918;2023-05-02T04:32:09;97643.59;;;7.14;100.00
50774;BME280;36745;48.544;8.918;2023-05-02T04:35:30;97642.78;;;7.18;100.00
50774;BME280;36745;48.544;8.918;2023-05-02T04:38:49;97642.06;;;7.10;100.00
50774;BME280;36745;48.544;8.918;2023-05-02T04:42:09;97642.84;;;7.10;100.00
50774;BME280;36745;48.544;8.918;2023-05-02T04:45:30;97643.66;;;7.07;100.00
50774;BME280;36745;48.544;8.918;2023-05-02T04:48:51;97648.72;;;7.12;100.00
50774;BME280;36745;48.544;8.918;2023-05-02T04:52:10;97648.28;;;7.18;100.00
50774;BME280;36745;48.544;8.918;2023-05-02T04:55:30;97654.47;;;7.22;100.00
50774;BME280;36745;48.544;8.918;2023-05-02T04:58:50;97659.44;;;7.34;100.00
50774;BME280;36745;48.544;8.918;2023-05-02T05:02:10;97651.56;;;7.36;100.00
50774;BME280;36745;48.544;8.918;2023-05-02T05:05:31;97658.06;;;7.49;100.00
50774;BME280;36745;48.544;8.918;2023-05-02T05:08:54;97660.69;;;7.56;100.00
50774;BME280;36745;48.544;8.918;2023-05-02T05:12:14;97656.28;;;7.66;100.00
50774;BME280;36745;48.544;8.918;2023-05-02T05:15:34;97664.00;;;7.74;100.00
50774;BME280;36745;48.544;8.918;2023-05-02T05:18:53;97672.53;;;7.80;100.00
50774;BME280;36745;48.544;8.918;2023-05-02T05:22:13;97676.31;;;7.89;100.00
50774;BME280;36745;48.544;8.918;2023-05-02T05:25:34;97679.69;;;8.00;100.00
50774;BME280;36745;48.544;8.918;2023-05-02T05:28:53;97685.47;;;8.10;100.00
50774;BME280;36745;48.544;8.918;2023-05-02T05:32:13;97684.72;;;8.06;100.00
50774;BME280;36745;48.544;8.918;2023-05-02T05:35:33;97684.25;;;8.11;100.00
50774;BME280;36745;48.544;8.918;2023-05-02T05:38:52;97691.28;;;8.12;100.00
50774;BME280;36745;48.544;8.918;2023-05-02T05:42:12;97704.69;;;8.10;100.00
50774;BME280;36745;48.544;8.918;2023-05-02T05:45:32;97708.16;;;8.14;100.00
50774;BME280;36745;48.544;8.918;2023-05-02T05:48:52;97722.78;;;8.34;100.00
50774;BME280;36745;48.544;8.918;2023-05-02T05:52:12;97733.19;;;8.46;100.00
50774;BME280;36745;48.544;8.918;2023-05-02T05:55:31;97741.13;;;8.64;100.00
50774;BME280;36745;48.544;8.918;2023-05-02T05:58:51;97739.84;;;8.72;100.00
50774;BME280;36745;48.544;8.918;2023-05-02T06:02:13;97732.38;;;8.72;100.00
50774;BME280;36745;48.544;8.918;2023-05-02T06:05:33;97741.81;;;8.71;100.00
50774;BME280;36745;48.544;8.918;2023-05-02T06:08:53;97741.00;;;8.74;100.00
50774;BME280;36745;48.544;8.918;2023-05-02T06:12:13;97741.63;;;8.82;100.00
50774;BME280;36745;48.544;8.918;2023-05-02T06:15:34;97747.97;;;8.79;100.00
50774;BME280;36745;48.544;8.918;2023-05-02T06:18:54;97750.06;;;8.71;100.00
50774;BME280;36745;48.544;8.918;2023-05-02T06:22:14;97751.16;;;8.77;100.00
50774;BME280;36745;48.544;8.918;2023-05-02T06:25:36;97760.47;;;8.83;100.00
50774;BME280;36745;48.544;8.918;2023-05-02T06:28:56;97757.00;;;8.79;100.00
50774;BME280;36745;48.544;8.918;2023-05-02T06:32:16;97767.56;;;8.81;100.00
50774;BME280;36745;48.544;8.918;2023-05-02T06:35:37;97771.94;;;9.02;100.00
50774;BME280;36745;48.544;8.918;2023-05-02T06:38:57;97775.16;;;9.20;100.00
50774;BME280;36745;48.544;8.918;2023-05-02T06:42:17;97774.59;;;9.28;100.00
50774;BME280;36745;48.544;8.918;2023-05-02T06:45:37;97772.94;;;9.35;100.00
50774;BME280;36745;48.544;8.918;2023-05-02T06:48:57;97777.66;;;9.34;100.00
50774;BME280;36745;48.544;8.918;2023-05-02T06:52:17;97788.59;;;9.38;100.00
50774;BME280;36745;48.544;8.918;2023-05-02T06:55:37;97782.13;;;9.48;100.00
50774;BME280;36745;48.544;8.918;2023-05-02T06:58:57;97782.41;;;9.53;100.00
50774;BME280;36745;48.544;8.918;2023-05-02T07:02:16;97782.59;;;9.66;100.00
50774;BME280;36745;48.544;8.918;2023-05-02T07:05:36;97781.50;;;9.80;100.00
50774;BME280;36745;48.544;8.918;2023-05-02T07:08:56;97790.91;;;9.82;100.00
50774;BME280;36745;48.544;8.918;2023-05-02T07:12:16;97797.34;;;9.76;100.00
50774;BME280;36745;48.544;8.918;2023-05-02T07:15:36;97797.63;;;9.81;100.00
50774;BME280;36745;48.544;8.918;2023-05-02T07:18:55;97800.72;;;10.03;100.00
50774;BME280;36745;48.544;8.918;2023-05-02T07:22:15;97796.59;;;10.11;100.00
50774;BME280;36745;48.544;8.918;2023-05-02T07:25:35;97807.63;;;10.11;100.00
50774;BME280;36745;48.544;8.918;2023-05-02T07:28:55;97808.47;;;10.28;100.00
50774;BME280;36745;48.544;8.918;2023-05-02T07:32:14;97805.16;;;10.36;100.00
50774;BME280;36745;48.544;8.918;2023-05-02T07:35:34;97804.47;;;10.48;100.00
50774;BME280;36745;48.544;8.918;2023-05-02T07:38:54;97815.50;;;10.48;100.00
50774;BME280;36745;48.544;8.918;2023-05-02T07:42:14;97807.13;;;10.72;100.00
50774;BME280;36745;48.544;8.918;2023-05-02T07:45:34;97810.75;;;10.85;100.00
50774;BME280;36745;48.544;8.918;2023-05-02T07:48:53;97810.56;;;10.92;100.00
50774;BME280;36745;48.544;8.918;2023-05-02T07:52:13;97811.25;;;10.96;100.00
50774;BME280;36745;48.544;8.918;2023-05-02T07:55:33;97812.28;;;11.18;100.00
50774;BME280;36745;48.544;8.918;2023-05-02T07:58:53;97817.38;;;11.20;100.00
50774;BME280;36745;48.544;8.918;2023-05-02T08:02:13;97829.56;;;11.22;100.00
50774;BME280;36745;48.544;8.918;2023-05-02T08:05:33;97827.78;;;11.45;100.00
50774;BME280;36745;48.544;8.918;2023-05-02T08:08:53;97831.03;;;11.56;100.00
50774;BME280;36745;48.544;8.918;2023-05-02T08:12:13;97832.78;;;11.66;100.00
50774;BME280;36745;48.544;8.918;2023-05-02T08:15:33;97840.19;;;11.69;100.00
50774;BME280;36745;48.544;8.918;2023-05-02T08:18:52;97844.66;;;11.79;100.00
50774;BME280;36745;48.544;8.918;2023-05-02T08:22:12;97843.13;;;11.78;100.00
50774;BME280;36745;48.544;8.918;2023-05-02T08:25:32;97841.91;;;11.63;100.00
50774;BME280;36745;48.544;8.918;2023-05-02T08:28:52;97840.59;;;11.67;100.00
50774;BME280;36745;48.544;8.918;2023-05-02T08:32:13;97844.16;;;11.68;100.00
50774;BME280;36745;48.544;8.918;2023-05-02T08:35:33;97842.41;;;11.90;100.00
50774;BME280;36745;48.544;8.918;2023-05-02T08:38:53;97837.47;;;12.10;100.00
50774;BME280;36745;48.544;8.918;2023-05-02T08:42:12;97832.44;;;12.22;100.00
50774;BME280;36745;48.544;8.918;2023-05-02T08:45:39;97833.78;;;12.30;100.00
50774;BME280;36745;48.544;8.918;2023-05-02T08:49:00;97834.91;;;12.45;100.00
50774;BME280;36745;48.544;8.918;2023-05-02T08:52:21;97843.75;;;12.40;100.00
50774;BME280;36745;48.544;8.918;2023-05-02T08:55:41;97840.13;;;12.55;100.00
50774;BME280;36745;48.544;8.918;2023-05-02T08:59:01;97842.38;;;12.73;100.00
50774;BME280;36745;48.544;8.918;2023-05-02T09:03:14;97856.31;;;12.82;100.00
50774;BME280;36745;48.544;8.918;2023-05-02T09:06:09;97851.31;;;12.77;100.00
50774;BME280;36745;48.544;8.918;2023-05-02T09:09:32;97852.88;;;12.78;100.00
50774;BME280;36745;48.544;8.918;2023-05-02T09:12:52;97863.28;;;13.25;100.00
50774;BME280;36745;48.544;8.918;2023-05-02T09:16:22;97859.75;;;13.37;100.00
50774;BME280;36745;48.544;8.918;2023-05-02T09:19:43;97857.53;;;13.19;96.84
50774;BME280;36745;48.544;8.918;2023-05-02T09:23:03;97856.44;;;13.17;98.13
50774;BME280;36745;48.544;8.918;2023-05-02T09:26:29;97864.69;;;13.55;99.34
50774;BME280;36745;48.544;8.918;2023-05-02T09:30:17;97865.06;;;13.78;98.47
50774;BME280;36745;48.544;8.918;2023-05-02T09:33:37;97869.03;;;13.90;97.16
50774;BME280;36745;48.544;8.918;2023-05-02T09:36:57;97859.91;;;13.55;92.52
50774;BME280;36745;48.544;8.918;2023-05-02T09:40:17;97857.97;;;13.43;94.30
50774;BME280;36745;48.544;8.918;2023-05-02T09:43:38;97855.94;;;13.56;94.26
50774;BME280;36745;48.544;8.918;2023-05-02T09:46:58;97863.50;;;13.77;93.27
50774;BME280;36745;48.544;8.918;2023-05-02T09:50:33;97868.31;;;13.99;92.96
50774;BME280;36745;48.544;8.918;2023-05-02T09:53:53;97864.78;;;14.20;92.33
50774;BME280;36745;48.544;8.918;2023-05-02T09:57:13;97856.94;;;14.62;88.60
50774;BME280;36745;48.544;8.918;2023-05-02T10:00:42;97866.59;;;15.19;89.95
50774;BME280;36745;48.544;8.918;2023-05-02T10:04:03;97854.88;;;15.91;91.20
50774;BME280;36745;48.544;8.918;2023-05-02T10:07:24;97857.19;;;16.02;89.33
50774;BME280;36745;48.544;8.918;2023-05-02T10:10:49;97861.50;;;15.85;86.19
50774;BME280;36745;48.544;8.918;2023-05-02T10:14:09;97862.66;;;15.38;86.12
50774;BME280;36745;48.544;8.918;2023-05-02T10:17:31;97865.59;;;15.04;85.86
50774;BME280;36745;48.544;8.918;2023-05-02T10:20:57;97866.06;;;14.72;86.37
50774;BME280;36745;48.544;8.918;2023-05-02T10:24:18;97872.69;;;14.43;84.89
50774;BME280;36745;48.544;8.918;2023-05-02T10:27:39;97869.31;;;14.48;86.04
50774;BME280;36745;48.544;8.918;2023-05-02T10:31:00;97871.47;;;14.44;85.56
50774;BME280;36745;48.544;8.918;2023-05-02T10:34:21;97872.41;;;14.28;85.44
50774;BME280;36745;48.544;8.918;2023-05-02T10:37:41;97867.00;;;14.25;85.53
50774;BME280;36745;48.544;8.918;2023-05-02T10:41:08;97862.50;;;14.40;85.97
50774;BME280;36745;48.544;8.918;2023-05-02T10:44:32;97855.28;;;15.04;83.88
50774;BME280;36745;48.544;8.918;2023-05-02T10:48:11;97850.28;;;16.76;84.60
50774;BME280;36745;48.544;8.918;2023-05-02T10:51:32;97845.00;;;17.53;79.27
50774;BME280;36745;48.544;8.918;2023-05-02T10:58:38;97844.22;;;18.15;74.21
50774;BME280;36745;48.544;8.918;2023-05-02T11:01:57;97849.59;;;16.39;68.43
50774;BME280;36745;48.544;8.918;2023-05-02T11:05:17;97839.56;;;15.78;71.62
50774;BME280;36745;48.544;8.918;2023-05-02T11:08:37;97840.94;;;15.73;72.52
50774;BME280;36745;48.544;8.918;2023-05-02T11:11:57;97848.03;;;16.38;72.64
50774;BME280;36745;48.544;8.918;2023-05-02T11:18:57;97837.00;;;16.71;68.14
50774;BME280;36745;48.544;8.918;2023-05-02T11:25:41;97837.88;;;15.80;66.48
50774;BME280;36745;48.544;8.918;2023-05-02T11:29:01;97840.81;;;15.86;68.80
50774;BME280;36745;48.544;8.918;2023-05-02T11:32:21;97837.06;;;16.34;70.62
50774;BME280;36745;48.544;8.918;2023-05-02T11:35:42;97838.34;;;16.94;69.19
50774;BME280;36745;48.544;8.918;2023-05-02T11:39:03;97828.25;;;16.96;66.23
50774;BME280;36745;48.544;8.918;2023-05-02T11:42:28;97826.03;;;17.33;64.74
50774;BME280;36745;48.544;8.918;2023-05-02T11:45:48;97826.75;;;16.86;63.30
50774;BME280;36745;48.544;8.918;2023-05-02T11:49:08;97825.34;;;17.95;64.11
50774;BME280;36745;48.544;8.918;2023-05-02T11:52:28;97829.59;;;17.34;61.28
50774;BME280;36745;48.544;8.918;2023-05-02T11:55:54;97825.16;;;17.51;61.80
50774;BME280;36745;48.544;8.918;2023-05-02T11:59:14;97825.84;;;16.80;60.96
50774;BME280;36745;48.544;8.918;2023-05-02T12:02:39;97826.00;;;17.42;60.82
50774;BME280;36745;48.544;8.918;2023-05-02T12:06:09;97819.75;;;17.24;61.11
50774;BME280;36745;48.544;8.918;2023-05-02T12:09:29;97818.97;;;16.99;60.48
50774;BME280;36745;48.544;8.918;2023-05-02T12:12:49;97822.31;;;16.70;59.89
50774;BME280;36745;48.544;8.918;2023-05-02T12:16:09;97832.53;;;16.64;58.86
50774;BME280;36745;48.544;8.918;2023-05-02T12:19:29;97822.00;;;16.68;59.79
50774;BME280;36745;48.544;8.918;2023-05-02T12:22:49;97820.34;;;16.62;58.11
50774;BME280;36745;48.544;8.918;2023-05-02T12:26:17;97828.66;;;16.71;58.62
50774;BME280;36745;48.544;8.918;2023-05-02T12:29:42;97826.50;;;17.08;57.53
50774;BME280;36745;48.544;8.918;2023-05-02T12:33:03;97811.75;;;17.16;57.05
50774;BME280;36745;48.544;8.918;2023-05-02T12:36:23;97812.03;;;17.75;58.82
50774;BME280;36745;48.544;8.918;2023-05-02T12:39:43;97816.50;;;17.96;57.39
50774;BME280;36745;48.544;8.918;2023-05-02T12:43:03;97812.03;;;17.75;56.84
50774;BME280;36745;48.544;8.918;2023-05-02T12:46:25;97812.97;;;17.72;56.17
50774;BME280;36745;48.544;8.918;2023-05-02T12:49:57;97809.59;;;18.07;56.27
50774;BME280;36745;48.544;8.918;2023-05-02T12:53:37;97811.88;;;17.93;55.91
50774;BME280;36745;48.544;8.918;2023-05-02T12:56:58;97816.47;;;17.58;54.31
50774;BME280;36745;48.544;8.918;2023-05-02T13:00:18;97814.50;;;17.26;56.13
50774;BME280;36745;48.544;8.918;2023-05-02T13:03:38;97814.69;;;16.89;56.36
50774;BME280;36745;48.544;8.918;2023-05-02T13:06:58;97812.47;;;17.26;58.71
50774;BME280;36745;48.544;8.918;2023-05-02T13:10:18;97826.00;;;17.42;57.46
50774;BME280;36745;48.544;8.918;2023-05-02T13:13:38;97825.97;;;17.18;56.79
50774;BME280;36745;48.544;8.918;2023-05-02T13:16:57;97828.25;;;16.96;56.74
50774;BME280;36745;48.544;8.918;2023-05-02T13:20:17;97830.00;;;17.17;57.04
50774;BME280;36745;48.544;8.918;2023-05-02T13:23:37;97815.41;;;17.23;55.27
50774;BME280;36745;48.544;8.918;2023-05-02T13:26:58;97818.84;;;17.17;54.22
50774;BME280;36745;48.544;8.918;2023-05-02T13:30:17;97806.72;;;17.30;55.15
50774;BME280;36745;48.544;8.918;2023-05-02T13:33:37;97822.97;;;17.31;54.91
50774;BME280;36745;48.544;8.918;2023-05-02T13:36:57;97814.13;;;17.09;53.20
50774;BME280;36745;48.544;8.918;2023-05-02T13:40:17;97806.84;;;16.69;53.80
50774;BME280;36745;48.544;8.918;2023-05-02T13:43:37;97813.53;;;17.05;55.78
50774;BME280;36745;48.544;8.918;2023-05-02T13:46:59;97812.34;;;17.20;54.33
50774;BME280;36745;48.544;8.918;2023-05-02T13:50:18;97811.53;;;17.53;54.47
50774;BME280;36745;48.544;8.918;2023-05-02T13:53:38;97817.78;;;17.72;53.42
50774;BME280;36745;48.544;8.918;2023-05-02T13:56:58;97816.75;;;17.60;53.72
50774;BME280;36745;48.544;8.918;2023-05-02T14:00:18;97816.75;;;17.60;53.80
50774;BME280;36745;48.544;8.918;2023-05-02T14:03:39;97814.03;;;17.51;53.55
50774;BME280;36745;48.544;8.918;2023-05-02T14:06:59;97807.69;;;17.27;53.60
50774;BME280;36745;48.544;8.918;2023-05-02T14:10:19;97818.47;;;17.34;53.89
50774;BME280;36745;48.544;8.918;2023-05-02T14:13:39;97817.16;;;17.44;54.12
50774;BME280;36745;48.544;8.918;2023-05-02T14:16:58;97824.16;;;17.06;52.01
50774;BME280;36745;48.544;8.918;2023-05-02T14:20:20;97827.88;;;17.12;51.81
50774;BME280;36745;48.544;8.918;2023-05-02T14:23:41;97823.56;;;17.02;51.61
50774;BME280;36745;48.544;8.918;2023-05-02T14:27:01;97819.81;;;17.14;51.76
50774;BME280;36745;48.544;8.918;2023-05-02T14:30:23;97827.25;;;17.41;52.80
50774;BME280;36745;48.544;8.918;2023-05-02T14:33:43;97825.78;;;17.79;51.57
50774;BME280;36745;48.544;8.918;2023-05-02T14:37:03;97824.41;;;17.50;51.59
50774;BME280;36745;48.544;8.918;2023-05-02T14:40:22;97827.25;;;17.41;51.51
50774;BME280;36745;48.544;8.918;2023-05-02T14:43:42;97821.09;;;17.04;51.33
50774;BME280;36745;48.544;8.918;2023-05-02T14:47:02;97822.41;;;16.94;52.28
50774;BME280;36745;48.544;8.918;2023-05-02T14:50:22;97828.63;;;16.80;52.60
50774;BME280;36745;48.544;8.918;2023-05-02T14:53:42;97826.09;;;16.91;52.47
50774;BME280;36745;48.544;8.918;2023-05-02T14:57:01;97835.50;;;16.61;52.59
50774;BME280;36745;48.544;8.918;2023-05-02T15:00:22;97838.56;;;16.63;52.87
50774;BME280;36745;48.544;8.918;2023-05-02T15:03:41;97835.53;;;16.33;52.33
50774;BME280;36745;48.544;8.918;2023-05-02T15:07:02;97829.97;;;16.15;52.82
50774;BME280;36745;48.544;8.918;2023-05-02T15:10:22;97835.22;;;16.04;51.40
50774;BME280;36745;48.544;8.918;2023-05-02T15:13:42;97842.97;;;16.18;52.13
50774;BME280;36745;48.544;8.918;2023-05-02T15:17:01;97843.59;;;16.13;52.71
50774;BME280;36745;48.544;8.918;2023-05-02T15:20:21;97838.81;;;15.86;53.34
50774;BME280;36745;48.544;8.918;2023-05-02T15:23:41;97842.66;;;15.98;53.92
50774;BME280;36745;48.544;8.918;2023-05-02T15:27:01;97842.94;;;16.27;53.95
50774;BME280;36745;48.544;8.918;2023-05-02T15:30:21;97847.72;;;16.45;52.53
50774;BME280;36745;48.544;8.918;2023-05-02T15:33:41;97840.78;;;16.22;52.84
50774;BME280;36745;48.544;8.918;2023-05-02T15:37:01;97841.09;;;16.33;53.25
50774;BME280;36745;48.544;8.918;2023-05-02T15:40:21;97846.00;;;16.48;53.54
50774;BME280;36745;48.544;8.918;2023-05-02T15:43:41;97838.28;;;16.61;53.53
50774;BME280;36745;48.544;8.918;2023-05-02T15:47:00;97841.97;;;16.49;53.15
50774;BME280;36745;48.544;8.918;2023-05-02T15:50:20;97848.16;;;16.53;53.00
50774;BME280;36745;48.544;8.918;2023-05-02T15:53:41;97852.09;;;16.19;52.51
50774;BME280;36745;48.544;8.918;2023-05-02T15:57:02;97859.63;;;16.09;53.32
50774;BME280;36745;48.544;8.918;2023-05-02T16:00:22;97865.22;;;16.18;53.39
50774;BME280;36745;48.544;8.918;2023-05-02T16:03:42;97859.97;;;16.02;53.52
50774;BME280;36745;48.544;8.918;2023-05-02T16:07:02;97865.06;;;15.85;53.26
50774;BME280;36745;48.544;8.918;2023-05-02T16:10:22;97864.28;;;15.94;53.22
50774;BME280;36745;48.544;8.918;2023-05-02T16:13:41;97868.28;;;15.93;52.07
50774;BME280;36745;48.544;8.918;2023-05-02T16:17:01;97863.50;;;15.75;51.42
50774;BME280;36745;48.544;8.918;2023-05-02T16:20:21;97860.53;;;15.61;52.37
50774;BME280;36745;48.544;8.918;2023-05-02T16:23:41;97862.41;;;15.82;52.91
50774;BME280;36745;48.544;8.918;2023-05-02T16:27:01;97859.03;;;15.87;52.79
50774;BME280;36745;48.544;8.918;2023-05-02T16:30:21;97869.53;;;16.01;53.06
50774;BME280;36745;48.544;8.918;2023-05-02T16:33:41;97868.31;;;16.11;53.15
50774;BME280;36745;48.544;8.918;2023-05-02T16:37:01;97874.16;;;16.04;52.54
50774;BME280;36745;48.544;8.918;2023-05-02T16:40:21;97869.84;;;15.85;52.57
50774;BME280;36745;48.544;8.918;2023-05-02T16:43:41;97869.19;;;15.72;52.13
50774;BME280;36745;48.544;8.918;2023-05-02T16:47:00;97878.31;;;15.54;52.25
50774;BME280;36745;48.544;8.918;2023-05-02T16:50:20;97879.53;;;15.53;52.41
50774;BME280;36745;48.544;8.918;2023-05-02T16:53:40;97885.63;;;15.39;51.57
50774;BME280;36745;48.544;8.918;2023-05-02T16:57:01;97888.81;;;15.28;51.32
50774;BME280;36745;48.544;8.918;2023-05-02T17:00:22;97896.25;;;15.31;51.84
50774;BME280;36745;48.544;8.918;2023-05-02T17:03:42;97887.94;;;15.40;52.13
50774;BME280;36745;48.544;8.918;2023-05-02T17:07:02;97888.88;;;15.37;51.82
50774;BME280;36745;48.544;8.918;2023-05-02T17:10:21;97892.19;;;15.14;51.09
50774;BME280;36745;48.544;8.918;2023-05-02T17:13:42;97891.84;;;15.12;51.46
50774;BME280;36745;48.544;8.918;2023-05-02T17:17:02;97896.94;;;15.13;51.28
50774;BME280;36745;48.544;8.918;2023-05-02T17:20:22;97894.03;;;15.17;52.04
50774;BME280;36745;48.544;8.918;2023-05-02T17:23:42;97892.81;;;15.18;51.46
50774;BME280;36745;48.544;8.918;2023-05-02T17:27:02;97898.25;;;15.22;51.66
50774;BME280;36745;48.544;8.918;2023-05-02T17:30:22;97900.84;;;15.16;51.65
50774;BME280;36745;48.544;8.918;2023-05-02T17:33:43;97897.03;;;15.01;51.55
50774;BME280;36745;48.544;8.918;2023-05-02T17:37:02;97899.81;;;15.01;51.62
50774;BME280;36745;48.544;8.918;2023-05-02T17:40:22;97899.47;;;14.90;52.26
50774;BME280;36745;48.544;8.918;2023-05-02T17:43:42;97901.34;;;14.93;52.28
50774;BME280;36745;48.544;8.918;2023-05-02T17:47:02;97905.66;;;14.94;52.41
50774;BME280;36745;48.544;8.918;2023-05-02T17:50:22;97909.03;;;14.89;52.45
50774;BME280;36745;48.544;8.918;2023-05-02T17:53:42;97915.47;;;14.86;52.80
50774;BME280;36745;48.544;8.918;2023-05-02T17:57:02;97926.16;;;14.65;53.85
50774;BME280;36745;48.544;8.918;2023-05-02T18:00:22;97922.47;;;14.47;54.59
50774;BME280;36745;48.544;8.918;2023-05-02T18:03:42;97921.31;;;14.35;55.10
50774;BME280;36745;48.544;8.918;2023-05-02T18:07:02;97925.78;;;14.20;55.86
50774;BME280;36745;48.544;8.918;2023-05-02T18:10:22;97930.59;;;14.07;55.90
50774;BME280;36745;48.544;8.918;2023-05-02T18:13:43;97933.19;;;14.01;56.25
50774;BME280;36745;48.544;8.918;2023-05-02T18:17:03;97940.63;;;13.92;56.47
50774;BME280;36745;48.544;8.918;2023-05-02T18:20:23;97947.63;;;13.83;56.51